createdAt,value
2023-05-23T00:02:29.363Z,5.50
2023-05-23T00:07:33.714Z,5.75
2023-05-23T00:12:39.695Z,7.28
2023-05-23T00:17:42.935Z,6.82
2023-05-23T00:27:51.684Z,5.97
2023-05-23T00:32:55.787Z,6.15
2023-05-23T00:37:58.320Z,6.55
2023-05-23T00:43:01.588Z,6.63
2023-05-23T00:48:04.904Z,6.30
2023-05-23T00:53:10.984Z,5.72
2023-05-23T00:58:34.657Z,5.65
2023-05-23T01:03:38.579Z,6.20
2023-05-23T01:08:43.121Z,6.47
2023-05-23T01:13:55.584Z,7.35
2023-05-23T01:19:17.243Z,7.60
2023-05-23T01:24:44.586Z,7.50
2023-05-23T01:29:49.582Z,7.90
2023-05-23T01:34:54.047Z,8.50
2023-05-23T01:39:57.803Z,7.57
2023-05-23T01:45:03.145Z,7.50
2023-05-23T01:50:08.668Z,7.18
2023-05-23T01:55:12.454Z,6.82
2023-05-23T02:00:15.886Z,6.85
2023-05-23T02:05:22.418Z,7.47
2023-05-23T02:10:35.996Z,7.73
2023-05-23T02:15:42.025Z,6.53
2023-05-23T02:21:05.844Z,5.88
2023-05-23T02:26:08.441Z,7.15
2023-05-23T02:31:14.921Z,7.78
2023-05-23T02:36:21.452Z,8.15
2023-05-23T02:41:24.557Z,7.68
2023-05-23T02:46:27.619Z,6.90
2023-05-23T02:51:30.525Z,7.97
2023-05-23T02:56:33.553Z,8.02
2023-05-23T03:01:41.933Z,7.53
2023-05-23T03:06:44.904Z,7.80
2023-05-23T03:11:47.417Z,8.80
2023-05-23T03:16:50.675Z,8.60
2023-05-23T03:21:53.406Z,9.25
2023-05-23T03:26:56.017Z,8.10
2023-05-23T03:31:59.571Z,8.30
2023-05-23T03:37:02.541Z,8.35
2023-05-23T03:42:05.569Z,8.75
2023-05-23T03:47:09.336Z,7.63
2023-05-23T03:52:15.646Z,8.20
2023-05-23T03:57:18.832Z,7.95
2023-05-23T04:02:22.207Z,7.57
2023-05-23T04:07:26.750Z,8.13
2023-05-23T04:12:33.464Z,8.23
2023-05-23T04:17:39.687Z,8.32
2023-05-23T04:22:43.474Z,7.82
2023-05-23T04:27:47.615Z,7.68
2023-05-23T04:32:50.946Z,7.35
2023-05-23T04:37:57.113Z,7.97
2023-05-23T04:43:02.368Z,7.00
2023-05-23T04:48:22.573Z,7.10
2023-05-23T04:53:25.887Z,7.50
2023-05-23T04:58:28.947Z,7.75
2023-05-23T05:03:35.403Z,6.65
2023-05-23T05:08:41.077Z,8.05
2023-05-23T05:13:45.353Z,7.20
2023-05-23T05:18:47.977Z,7.97
2023-05-23T05:23:52.673Z,8.20
2023-05-23T05:28:55.337Z,7.93
2023-05-23T05:33:59.120Z,8.50
2023-05-23T05:39:02.981Z,7.70
2023-05-23T05:44:05.887Z,8.63
2023-05-23T05:49:10.257Z,7.13
2023-05-23T05:54:13.686Z,6.80
2023-05-23T05:59:16.292Z,6.90
2023-05-23T06:04:20.038Z,6.95
2023-05-23T06:09:23.656Z,6.45
2023-05-23T06:14:26.355Z,6.18
2023-05-23T06:19:29.609Z,6.78
2023-05-23T06:24:33.115Z,6.72
2023-05-23T06:29:38.676Z,6.95
2023-05-23T06:34:41.317Z,7.30
2023-05-23T06:39:44.079Z,7.20
2023-05-23T06:44:46.700Z,8.13
2023-05-23T06:49:49.090Z,8.52
2023-05-23T06:54:51.971Z,7.68
2023-05-23T07:04:58.199Z,7.30
2023-05-23T07:10:20.223Z,7.63
2023-05-23T07:15:24.509Z,7.50
2023-05-23T07:20:36.415Z,8.38
2023-05-23T07:26:01.355Z,8.35
2023-05-23T07:31:12.211Z,8.25
2023-05-23T07:36:16.833Z,7.65
2023-05-23T07:41:19.769Z,7.68
2023-05-23T07:46:24.342Z,9.80
2023-05-23T07:51:27.084Z,8.32
2023-05-23T07:56:31.439Z,8.98
2023-05-23T08:06:51.953Z,8.35
2023-05-23T08:12:14.558Z,9.20
2023-05-23T08:17:18.160Z,8.45
2023-05-23T08:22:22.072Z,8.60
2023-05-23T08:27:25.080Z,8.77
2023-05-23T08:32:32.722Z,9.23
2023-05-23T08:37:36.259Z,10.50
2023-05-23T08:42:38.930Z,10.38
2023-05-23T08:47:48.078Z,13.50
2023-05-23T08:52:59.643Z,10.40
2023-05-23T08:58:04.181Z,11.02
2023-05-23T09:03:22.718Z,11.40
2023-05-23T09:08:38.616Z,10.80
2023-05-23T09:13:42.110Z,10.68
2023-05-23T09:18:48.301Z,9.90
2023-05-23T09:23:52.824Z,9.50
2023-05-23T09:28:58.254Z,9.48
2023-05-23T09:34:00.933Z,10.65
2023-05-23T09:39:05.820Z,9.88
2023-05-23T09:44:09.573Z,10.00
2023-05-23T09:49:18.338Z,8.82
2023-05-23T09:54:27.491Z,9.20
2023-05-23T09:59:32.221Z,10.68
2023-05-23T10:04:35.303Z,10.05
2023-05-23T10:14:44.745Z,11.52
2023-05-23T10:20:02.886Z,12.13
2023-05-23T10:25:06.854Z,10.15
2023-05-23T10:30:10.598Z,10.40
2023-05-23T10:35:24.538Z,11.52
2023-05-23T10:40:27.134Z,12.93
2023-05-23T10:45:29.991Z,13.23
2023-05-23T10:50:37.711Z,13.15
2023-05-23T10:55:40.290Z,14.25
2023-05-23T11:01:16.735Z,15.23
2023-05-23T11:06:43.577Z,14.23
2023-05-23T11:11:53.975Z,13.88
2023-05-23T11:16:56.937Z,13.00
2023-05-23T11:22:01.558Z,13.90
2023-05-23T11:27:04.616Z,13.18
2023-05-23T11:32:16.903Z,15.10
2023-05-23T11:37:21.110Z,18.77
2023-05-23T11:42:24.834Z,18.58
2023-05-23T11:47:27.394Z,16.50
2023-05-23T11:52:33.445Z,12.25
2023-05-23T11:57:40.006Z,11.00
2023-05-23T12:02:44.238Z,12.90
2023-05-23T12:07:48.658Z,12.60
2023-05-23T12:12:51.830Z,12.05
2023-05-23T12:17:56.499Z,10.93
2023-05-23T12:22:59.038Z,11.93
2023-05-23T12:28:03.977Z,10.60
2023-05-23T12:33:09.134Z,11.65
2023-05-23T12:38:16.706Z,11.80
2023-05-23T12:43:19.417Z,12.43
2023-05-23T12:48:21.929Z,12.77
2023-05-23T12:53:26.223Z,15.88
2023-05-23T12:58:31.058Z,13.98
2023-05-23T13:03:34.041Z,14.23
2023-05-23T13:08:37.912Z,14.65
2023-05-23T13:13:40.636Z,11.38
2023-05-23T13:18:43.563Z,11.52
2023-05-23T13:23:46.137Z,10.80
2023-05-23T13:28:48.706Z,12.63
2023-05-23T13:33:51.794Z,13.82
2023-05-23T13:38:54.571Z,14.57
2023-05-23T13:43:59.755Z,15.98
2023-05-23T13:49:04.180Z,12.95
2023-05-23T13:54:07.563Z,13.00
2023-05-23T13:59:10.223Z,13.63
2023-05-23T14:04:13.782Z,12.25
2023-05-23T14:09:16.372Z,12.00
2023-05-23T14:14:19.153Z,10.50
2023-05-23T14:19:21.744Z,9.50
2023-05-23T14:24:24.426Z,10.05
2023-05-23T14:29:27.146Z,9.93
2023-05-23T14:34:30.211Z,10.80
2023-05-23T14:44:35.233Z,8.77
2023-05-23T14:49:37.888Z,9.38
2023-05-23T14:54:46.929Z,8.27
2023-05-23T14:59:49.414Z,10.18
2023-05-23T15:04:52.640Z,9.55
2023-05-23T15:09:55.232Z,9.40
2023-05-23T15:15:03.638Z,9.38
2023-05-23T15:20:07.763Z,9.15
2023-05-23T15:25:10.934Z,8.85
2023-05-23T15:35:18.253Z,10.23
2023-05-23T15:40:22.210Z,9.68
2023-05-23T15:45:25.101Z,9.45
2023-05-23T15:50:27.638Z,12.30
2023-05-23T15:55:30.272Z,10.15
2023-05-23T16:00:51.266Z,10.77
2023-05-23T16:05:54.530Z,11.05
2023-05-23T16:10:57.979Z,10.40
2023-05-23T16:16:00.797Z,10.98
2023-05-23T16:21:03.460Z,10.70
2023-05-23T16:26:06.290Z,10.77
2023-05-23T16:31:09.429Z,10.88
2023-05-23T16:36:12.476Z,11.35
2023-05-23T16:41:15.123Z,10.00
2023-05-23T16:46:20.655Z,10.45
2023-05-23T16:51:24.082Z,10.50
2023-05-23T17:06:38.914Z,10.05
2023-05-23T17:16:48.247Z,10.52
2023-05-23T17:27:17.783Z,16.70
2023-05-23T17:32:23.471Z,15.93
2023-05-23T17:37:27.697Z,11.80
2023-05-23T17:42:40.699Z,11.30
2023-05-23T17:47:44.273Z,11.52
2023-05-23T17:53:03.416Z,13.00
2023-05-23T17:58:18.578Z,11.25
2023-05-23T18:03:21.838Z,11.15
2023-05-23T18:08:30.085Z,11.05
2023-05-23T18:13:33.021Z,11.35
2023-05-23T18:23:43.922Z,10.30
2023-05-23T18:28:47.890Z,11.38
2023-05-23T18:38:54.066Z,11.50
2023-05-23T18:43:57.514Z,11.00
2023-05-23T18:49:00.922Z,12.20
2023-05-23T18:54:04.072Z,13.77
2023-05-23T19:04:10.669Z,11.88
2023-05-23T19:09:14.001Z,10.48
2023-05-23T19:14:17.517Z,11.73
2023-05-23T19:19:21.072Z,13.23
2023-05-23T19:25:19.063Z,12.05
2023-05-23T19:30:20.994Z,11.15
2023-05-23T19:35:25.241Z,10.57
2023-05-23T19:40:28.932Z,12.60
2023-05-23T19:45:37.292Z,11.82
2023-05-23T19:50:43.468Z,10.43
2023-05-23T19:55:48.652Z,9.05
2023-05-23T20:00:51.957Z,6.45
2023-05-23T20:06:00.484Z,5.50
2023-05-23T20:11:03.727Z,4.43
2023-05-23T20:16:10.097Z,3.80
2023-05-23T20:21:13.998Z,3.50
2023-05-23T20:26:17.984Z,3.20
2023-05-23T20:31:23.376Z,3.65
2023-05-23T20:36:36.149Z,3.35
2023-05-23T20:41:43.955Z,4.20
2023-05-23T20:46:48.181Z,5.03
2023-05-23T20:51:54.968Z,5.80
2023-05-23T20:56:59.257Z,5.25
2023-05-23T21:02:05.372Z,6.13
2023-05-23T21:07:08.208Z,4.90
2023-05-23T21:12:13.304Z,5.25
2023-05-23T21:17:19.876Z,6.63
2023-05-23T21:22:26.318Z,5.53
2023-05-23T21:27:33.289Z,8.45
2023-05-23T21:32:41.469Z,8.18
2023-05-23T21:37:52.978Z,7.50
2023-05-23T21:42:56.404Z,8.55
2023-05-23T21:53:22.187Z,8.80
2023-05-23T21:58:25.816Z,10.30
2023-05-23T22:03:29.296Z,9.30
2023-05-23T22:08:33.413Z,8.93
2023-05-23T22:13:35.964Z,10.57
2023-05-23T22:18:51.698Z,10.37
2023-05-23T22:23:54.886Z,8.13
2023-05-23T22:28:57.607Z,6.43
2023-05-23T22:34:03.186Z,4.55
2023-05-23T22:39:06.105Z,5.75
2023-05-23T22:44:09.526Z,5.13
2023-05-23T22:49:12.076Z,5.65
2023-05-23T22:54:25.345Z,6.87
2023-05-23T22:59:31.330Z,5.95
2023-05-23T23:04:36.394Z,4.65
2023-05-23T23:09:52.861Z,4.10
2023-05-23T23:14:56.282Z,3.55
2023-05-23T23:19:59.309Z,3.58
2023-05-23T23:25:11.138Z,4.07
2023-05-23T23:30:13.881Z,2.97
2023-05-23T23:35:18.978Z,2.90
2023-05-23T23:40:21.608Z,3.38
2023-05-23T23:45:28.595Z,3.53
2023-05-23T23:50:32.401Z,3.13
2023-05-23T23:55:34.909Z,3.63
